KPSM

Portsmouth International Airport at Pease

Airport
ICAO code
KPSM
Summary
ICAO Region
NAM
ICAO Territory
Location

Portsmouth, New Hampshire,

Coordinates
43° 4' 41" N , 70° 49' 24" W
KCC
Airport WX
Cumulonimbus
Metar
KPSM 300855Z 02008KT 10SM FEW047 BKN060 BKN100 BKN190 16/05 A2990 RMK AO2A SLP127 T01550054 55007 $

Description

Portsmouth International Airport at Pease (formerly known as Pease International Airport) is a joint use civil-military (ANG) airport located 2 km west of the central business district of Portsmouth, a city in Rockingham County, New Hampshire.

Climatology

Humid continental climate (Köppen climate classification Dfa) - characterized by four seasons: cold, windy, snowy winters, mild springs, hot, humid summers, and crisp and relatively short autumns. Precipitation reaches its lowest in January and February and peaks in summer and latter half of spring.

Runways

Designator Length Width Surface Rops
16/34 3451 46 PEM Yes/Yes

Airport map

Aerial View

SKYbrary Partners:

Safety knowledge contributed by: